Time;durP1;ratioP1;P1;durP2;ratioP2;P2;SDS_P1;SDS_P2;PMS_P1;PMS_P2;Temp;Humidity;BMP_temperature;BMP_pressure;BME280_temperature;BME280_humidity;BME280_pressure;Samples;Min_cycle;Max_cycle;Signal;HPM_P1;HPM_P2
2022/04/20 05:03:09;;;;;;;7.82;4.50;;;5.60;90.30;;;;;;6151991;23;20061;-77
2022/04/20 05:05:35;;;;;;;10.13;4.60;;;5.70;89.90;;;;;;6167793;23;20004;-77
2022/04/20 05:08:01;;;;;;;8.52;4.05;;;5.80;89.30;;;;;;6168212;23;20179;-77
2022/04/20 05:10:27;;;;;;;6.57;4.22;;;5.70;88.70;;;;;;6143589;23;20024;-77
2022/04/20 05:12:53;;;;;;;7.85;4.20;;;5.80;88.80;;;;;;6168118;23;20008;-77
2022/04/20 05:15:19;;;;;;;6.82;3.95;;;5.90;88.30;;;;;;6192440;23;20001;-78
2022/04/20 05:17:45;;;;;;;8.52;3.97;;;5.90;88.10;;;;;;6193726;23;20017;-77
2022/04/20 05:20:12;;;;;;;10.25;4.75;;;6.00;87.90;;;;;;6168477;23;20302;-77
2022/04/20 05:22:40;;;;;;;5.85;4.28;;;6.00;87.50;;;;;;6167851;23;20000;-77
2022/04/20 05:25:07;;;;;;;8.07;4.55;;;6.10;87.10;;;;;;6146030;23;20005;-77
2022/04/20 05:27:33;;;;;;;7.53;4.30;;;6.20;87.00;;;;;;6144422;23;20013;-77
2022/04/20 05:30:08;;;;;;;6.07;4.00;;;6.30;86.00;;;;;;6169109;23;20067;-78
2022/04/20 05:32:34;;;;;;;6.32;3.78;;;6.30;85.20;;;;;;6169991;23;20073;-77
2022/04/20 05:35:04;;;;;;;6.50;3.50;;;6.40;85.30;;;;;;6195250;23;20009;-77
2022/04/20 05:42:59;;;;;;;6.68;4.05;;;6.60;83.90;;;;;;6170834;23;20008;-77
2022/04/20 05:45:25;;;;;;;5.45;3.80;;;6.60;83.90;;;;;;6169720;23;20019;-77
2022/04/20 05:48:06;;;;;;;6.82;4.07;;;6.60;84.80;;;;;;6148587;23;20168;-77
2022/04/20 05:50:32;;;;;;;5.75;3.90;;;6.70;83.90;;;;;;6169430;23;20011;-77
2022/04/20 05:52:59;;;;;;;7.30;4.18;;;6.80;83.30;;;;;;6196458;23;20293;-77
2022/04/20 05:55:25;;;;;;;7.78;3.72;;;6.80;83.20;;;;;;6145637;23;20011;-76
2022/04/20 05:57:52;;;;;;;6.13;3.55;;;6.90;83.00;;;;;;6169050;23;20005;-77
2022/04/20 06:00:18;;;;;;;7.07;3.90;;;7.00;82.90;;;;;;6144900;23;20012;-77
2022/04/20 06:03:03;;;;;;;7.78;3.83;;;7.20;81.40;;;;;;6148495;23;20029;-77
2022/04/20 06:05:28;;;;;;;6.32;3.90;;;7.40;81.30;;;;;;6140190;23;19998;-77
2022/04/20 06:08:22;;;;;;;7.68;3.70;;;7.60;80.40;;;;;;6140534;23;20291;-77
2022/04/20 06:11:03;;;;;;;8.20;3.70;;;7.80;79.40;;;;;;6141272;23;20068;-77
2022/04/20 06:13:33;;;;;;;7.50;3.72;;;7.90;78.00;;;;;;6116046;23;20005;-77
2022/04/20 06:16:07;;;;;;;6.05;3.60;;;8.00;77.80;;;;;;6141262;23;20017;-76
2022/04/20 06:18:56;;;;;;;9.17;3.50;;;8.10;77.90;;;;;;6139918;23;20015;-77
2022/04/20 06:21:26;;;;;;;7.47;3.70;;;8.20;77.30;;;;;;6116076;23;20116;-76
2022/04/20 06:24:15;;;;;;;16.23;4.25;;;8.30;76.70;;;;;;6111679;23;20018;-77
2022/04/20 06:27:02;;;;;;;10.70;3.90;;;8.40;76.60;;;;;;6165864;23;20049;-77
2022/04/20 06:30:00;;;;;;;9.60;3.63;;;8.40;76.70;;;;;;6158505;23;20166;-77
2022/04/20 06:32:36;;;;;;;6.70;3.75;;;8.50;76.70;;;;;;6115691;23;20056;-77
2022/04/20 06:35:40;;;;;;;8.70;3.40;;;8.60;76.60;;;;;;6139325;23;20009;-78
2022/04/20 06:38:24;;;;;;;6.03;3.50;;;8.70;76.00;;;;;;6164952;23;20015;-77
2022/04/20 06:41:24;;;;;;;11.23;4.72;;;8.70;75.50;;;;;;6164913;23;20056;-77
2022/04/20 06:44:08;;;;;;;5.38;3.53;;;8.70;75.70;;;;;;6164893;23;20016;-76
2022/04/20 06:46:37;;;;;;;10.02;3.70;;;8.80;74.80;;;;;;6164042;23;20013;-77
2022/04/20 06:49:03;;;;;;;7.55;3.85;;;8.80;75.40;;;;;;6139215;23;19997;-77
2022/04/20 07:00:19;;;;;;;5.85;3.47;;;9.20;74.80;;;;;;6138012;23;20009;-77
2022/04/20 07:03:06;;;;;;;6.53;3.80;;;9.30;73.90;;;;;;6136934;23;20183;-77
2022/04/20 07:06:16;;;;;;;7.50;3.40;;;9.40;73.90;;;;;;6164075;23;20016;-78
2022/04/20 07:09:11;;;;;;;9.50;3.60;;;9.60;73.10;;;;;;6161960;23;20010;-77
2022/04/20 07:11:56;;;;;;;8.10;3.50;;;9.70;72.30;;;;;;6136553;23;20248;-77
2022/04/20 07:14:22;;;;;;;6.05;3.42;;;9.80;72.20;;;;;;6138352;23;20306;-79
2022/04/20 07:16:49;;;;;;;6.38;3.20;;;9.90;71.60;;;;;;6137309;23;20015;-78
2022/04/20 07:19:28;;;;;;;;;;;10.00;71.20;;;;;;6138644;23;20194;-77
2022/04/20 07:22:06;;;;;;;9.25;3.78;;;10.00;71.00;;;;;;6115796;23;19912;-77
2022/04/20 07:25:01;;;;;;;5.40;3.50;;;10.10;71.50;;;;;;6126176;23;20252;-77
2022/04/20 07:28:15;;;;;;;5.57;3.10;;;10.20;70.40;;;;;;6116704;23;20067;-80
2022/04/20 07:31:44;;;;;;;5.20;2.90;;;10.40;70.00;;;;;;6164815;23;20044;-80
2022/04/20 07:34:28;;;;;;;4.80;2.80;;;10.50;69.20;;;;;;6026512;23;20021;-78
2022/04/20 07:37:03;;;;;;;4.82;3.00;;;10.50;68.90;;;;;;6022338;23;20011;-78
2022/04/20 07:39:49;;;;;;;5.88;3.13;;;10.60;68.60;;;;;;6123753;23;20070;-77
2022/04/20 07:42:52;;;;;;;5.38;2.85;;;10.70;68.50;;;;;;6106960;23;20017;-77
2022/04/20 07:45:26;;;;;;;5.13;2.60;;;10.70;68.60;;;;;;6137461;23;20256;-79
2022/04/20 07:48:15;;;;;;;4.55;2.75;;;10.70;68.10;;;;;;6123028;23;20017;-79
2022/04/20 07:50:49;;;;;;;6.07;3.20;;;10.80;68.50;;;;;;6137610;23;20021;-77
2022/04/20 07:53:44;;;;;;;5.40;2.90;;;10.90;67.50;;;;;;6085080;23;20193;-77
2022/04/20 07:56:28;;;;;;;5.00;3.15;;;11.00;68.20;;;;;;6138726;23;20061;-77
2022/04/20 07:59:20;;;;;;;3.53;2.45;;;11.10;68.10;;;;;;6140632;23;20021;-77
2022/04/20 08:02:06;;;;;;;5.07;2.67;;;11.20;67.70;;;;;;6137055;23;20076;-77
2022/04/20 08:04:51;;;;;;;6.53;3.60;;;11.40;66.90;;;;;;6163604;23;20016;-78
2022/04/20 08:07:24;;;;;;;9.63;3.75;;;11.50;66.30;;;;;;6115619;23;20314;-78
2022/04/20 08:09:50;;;;;;;8.43;2.78;;;11.50;66.10;;;;;;6138331;23;20064;-78
2022/04/20 08:12:15;;;;;;;5.95;3.03;;;11.60;66.60;;;;;;6114270;23;19997;-78
2022/04/20 08:14:42;;;;;;;3.90;3.00;;;11.70;65.70;;;;;;6137803;23;20191;-77
2022/04/20 08:17:16;;;;;;;6.32;2.90;;;11.80;65.00;;;;;;6137386;23;20199;-76
2022/04/20 08:20:07;;;;;;;5.07;2.90;;;11.70;65.20;;;;;;6118796;23;20017;-76
2022/04/20 08:22:44;;;;;;;6.70;3.00;;;11.50;65.50;;;;;;6137787;23;20025;-78
2022/04/20 08:25:12;;;;;;;5.45;2.85;;;11.50;66.30;;;;;;6164190;23;20058;-79
2022/04/20 08:27:40;;;;;;;5.23;3.20;;;11.60;65.70;;;;;;6164082;23;20001;-79
2022/04/20 08:30:07;;;;;;;7.03;3.17;;;11.70;65.50;;;;;;6163619;23;20124;-79
2022/04/20 08:32:49;;;;;;;3.67;3.00;;;11.80;65.20;;;;;;6165514;23;20009;-76
2022/04/20 08:35:15;;;;;;;5.45;3.03;;;11.80;64.70;;;;;;6114273;23;20029;-77
2022/04/20 08:37:41;;;;;;;6.10;3.17;;;11.70;64.90;;;;;;6163504;23;20346;-77
2022/04/20 08:40:11;;;;;;;4.55;3.00;;;11.70;65.00;;;;;;6164458;23;20005;-78
2022/04/20 08:42:39;;;;;;;10.05;4.00;;;11.90;64.70;;;;;;6139607;23;20014;-78
2022/04/20 08:45:05;;;;;;;8.85;3.30;;;12.00;64.50;;;;;;6141672;23;20008;-78
2022/04/20 08:47:39;;;;;;;7.65;3.55;;;12.00;64.70;;;;;;6163980;23;20001;-79
2022/04/20 08:50:07;;;;;;;6.55;3.10;;;12.00;64.40;;;;;;6164404;23;20009;-76
2022/04/20 08:52:39;;;;;;;7.77;3.33;;;12.10;63.00;;;;;;6163748;23;20023;-76
2022/04/20 08:55:24;;;;;;;7.68;3.20;;;12.20;63.00;;;;;;6165011;23;20001;-77
2022/04/20 08:57:52;;;;;;;5.57;2.65;;;12.10;62.40;;;;;;6168639;23;20187;-77
2022/04/20 09:00:24;;;;;;;4.77;2.73;;;12.10;62.10;;;;;;6166042;23;20181;-78
2022/04/20 09:02:56;;;;;;;3.67;2.08;;;12.30;62.40;;;;;;6164979;23;20016;-76
2022/04/20 09:05:27;;;;;;;5.93;2.55;;;12.40;61.70;;;;;;6166415;23;20021;-77
2022/04/20 09:07:53;;;;;;;5.90;2.30;;;12.40;60.30;;;;;;6115371;23;20056;-76
2022/04/20 09:10:20;;;;;;;4.20;2.47;;;12.50;60.70;;;;;;6165798;23;20025;-76
2022/04/20 09:13:10;;;;;;;6.70;2.33;;;12.60;59.80;;;;;;6116420;23;20032;-77
2022/04/20 09:15:37;;;;;;;7.07;2.83;;;12.60;60.70;;;;;;6165479;23;20299;-76
2022/04/20 09:18:05;;;;;;;7.70;2.35;;;12.70;59.80;;;;;;6165347;23;20001;-76
2022/04/20 09:20:32;;;;;;;12.52;2.45;;;12.90;59.50;;;;;;6139768;23;20208;-76
2022/04/20 09:23:09;;;;;;;4.80;2.00;;;13.10;59.30;;;;;;6165658;23;20012;-77
2022/04/20 09:25:37;;;;;;;4.45;1.90;;;13.20;58.30;;;;;;6115793;23;20002;-77
2022/04/20 09:28:24;;;;;;;5.13;1.67;;;13.00;57.50;;;;;;6167175;23;20029;-76
2022/04/20 09:30:51;;;;;;;5.20;2.05;;;12.90;57.90;;;;;;6163939;23;20009;-77
2022/04/20 09:33:17;;;;;;;5.80;2.30;;;13.00;58.70;;;;;;6165570;23;20310;-77
2022/04/20 09:35:50;;;;;;;3.22;1.90;;;13.20;57.70;;;;;;6137962;23;20049;-77
2022/04/20 09:38:21;;;;;;;5.20;2.17;;;13.40;58.10;;;;;;6139878;23;20005;-77
2022/04/20 09:41:09;;;;;;;4.85;2.25;;;13.40;57.70;;;;;;6138980;23;20009;-77
2022/04/20 09:43:35;;;;;;;6.13;2.25;;;13.50;56.40;;;;;;6165089;23;20021;-77
2022/04/20 09:49:12;;;;;;;6.25;2.13;;;13.50;55.40;;;;;;6165057;23;20223;-77
2022/04/20 09:51:43;;;;;;;5.50;2.30;;;13.50;55.70;;;;;;6139424;23;20005;-77
2022/04/20 09:54:26;;;;;;;5.25;1.98;;;13.60;56.10;;;;;;6165171;23;20009;-76
2022/04/20 09:57:13;;;;;;;6.90;2.33;;;13.60;55.20;;;;;;6164364;23;20006;-76
2022/04/20 10:00:09;;;;;;;3.20;2.15;;;13.50;54.80;;;;;;6165013;23;20047;-76
2022/04/20 10:02:48;;;;;;;3.03;1.63;;;13.40;54.30;;;;;;6137920;23;20017;-78
2022/04/20 10:05:15;;;;;;;4.30;1.77;;;13.40;54.50;;;;;;6165584;23;20306;-78
2022/04/20 10:07:44;;;;;;;6.20;2.08;;;13.50;55.30;;;;;;6164926;23;20013;-78
2022/04/20 10:10:10;;;;;;;3.72;2.08;;;13.70;55.60;;;;;;6165366;23;20011;-77
2022/04/20 10:12:42;;;;;;;3.47;2.10;;;13.80;54.20;;;;;;6166191;23;19994;-78
2022/04/20 10:17:59;;;;;;;4.97;2.40;;;13.70;55.20;;;;;;6139338;23;20077;-76
2022/04/20 10:20:26;;;;;;;3.78;2.13;;;13.90;56.50;;;;;;6165891;23;20002;-76
2022/04/20 10:22:54;;;;;;;3.83;2.03;;;13.90;54.80;;;;;;6141546;23;20020;-76
2022/04/20 10:25:21;;;;;;;3.80;2.22;;;14.00;55.20;;;;;;6141447;23;20017;-75
2022/04/20 10:28:17;;;;;;;3.88;1.92;;;14.10;55.00;;;;;;6164795;23;20279;-75
2022/04/20 10:31:22;;;;;;;3.40;2.20;;;14.30;54.90;;;;;;6164354;23;20203;-77
2022/04/20 10:33:56;;;;;;;4.07;2.30;;;14.40;54.50;;;;;;6138421;23;20065;-77
2022/04/20 10:36:35;;;;;;;4.18;2.08;;;14.40;55.00;;;;;;6139302;23;20064;-75
2022/04/20 10:39:22;;;;;;;4.28;2.20;;;14.40;54.00;;;;;;6138018;23;20017;-77
2022/04/20 10:42:11;;;;;;;3.30;2.03;;;14.50;54.00;;;;;;6164429;23;20040;-76
2022/04/20 10:44:55;;;;;;;5.30;1.83;;;14.40;52.80;;;;;;6139042;23;20012;-77
2022/04/20 10:47:28;;;;;;;3.58;1.85;;;14.50;53.30;;;;;;6164449;23;20056;-76
2022/04/20 10:50:10;;;;;;;5.32;2.10;;;14.60;53.90;;;;;;6138262;23;20016;-77
2022/04/20 10:52:37;;;;;;;3.80;1.90;;;14.70;53.40;;;;;;6165129;23;20006;-76
2022/04/20 10:55:05;;;;;;;7.47;1.90;;;14.70;52.20;;;;;;6138078;23;20006;-75
2022/04/20 10:57:35;;;;;;;3.78;2.08;;;14.90;51.90;;;;;;6164784;23;20045;-75
2022/04/20 11:00:16;;;;;;;6.35;1.90;;;14.60;52.30;;;;;;6138519;23;20002;-76
2022/04/20 11:02:54;;;;;;;2.88;2.00;;;14.70;53.20;;;;;;6164137;23;20287;-76
2022/04/20 11:05:22;;;;;;;5.93;1.98;;;15.00;51.70;;;;;;6164647;23;20346;-77
2022/04/20 11:08:00;;;;;;;6.70;2.20;;;15.00;52.20;;;;;;6163666;23;20017;-77
2022/04/20 11:10:27;;;;;;;3.60;2.30;;;15.00;51.60;;;;;;6164590;23;20040;-77
2022/04/20 11:19:12;;;;;;;5.90;1.80;;;15.50;51.70;;;;;;6138540;23;20006;-76
2022/04/20 11:22:08;;;;;;;5.38;1.95;;;16.10;50.80;;;;;;6163679;23;20020;-78
2022/04/20 11:24:34;;;;;;;5.53;2.00;;;16.90;48.50;;;;;;6114522;23;20027;-77
2022/04/20 11:27:00;;;;;;;5.80;2.00;;;17.80;47.60;;;;;;6163964;23;20094;-78
2022/04/20 11:29:28;;;;;;;3.97;1.63;;;18.30;46.60;;;;;;6164550;23;20009;-77
2022/04/20 11:32:03;;;;;;;4.23;1.90;;;18.90;46.40;;;;;;6164019;23;20076;-77
2022/04/20 11:34:41;;;;;;;4.20;2.00;;;19.70;45.50;;;;;;6138868;23;20065;-76
2022/04/20 11:37:07;;;;;;;4.18;2.00;;;20.70;44.30;;;;;;6163628;23;20006;-75
2022/04/20 11:39:33;;;;;;;7.82;2.35;;;21.00;44.10;;;;;;6164340;23;20246;-76
2022/04/20 11:42:04;;;;;;;3.50;1.70;;;21.70;43.90;;;;;;6164250;23;20076;-77
2022/04/20 11:44:37;;;;;;;4.90;1.90;;;22.30;44.30;;;;;;6113785;23;20009;-77
2022/04/20 11:47:09;;;;;;;4.38;1.80;;;22.80;42.80;;;;;;6136780;23;20014;-76
2022/04/20 11:49:43;;;;;;;5.80;1.75;;;23.30;42.20;;;;;;6164538;23;20021;-76
2022/04/20 11:52:14;;;;;;;2.50;1.70;;;23.50;41.70;;;;;;6138389;23;20090;-78
2022/04/20 11:54:45;;;;;;;3.08;1.58;;;23.90;40.70;;;;;;6138758;23;20006;-78
2022/04/20 11:57:15;;;;;;;4.82;2.10;;;24.60;40.60;;;;;;6138584;23;20002;-77
2022/04/20 11:59:46;;;;;;;4.15;2.13;;;25.10;40.10;;;;;;6164663;23;20052;-77
2022/04/20 12:02:14;;;;;;;4.50;2.00;;;25.10;40.10;;;;;;6163144;23;20334;-78
2022/04/20 12:04:40;;;;;;;4.83;1.80;;;25.70;40.20;;;;;;6164147;23;20002;-78
2022/04/20 12:07:08;;;;;;;5.72;2.20;;;26.00;38.80;;;;;;6137540;23;20291;-78
2022/04/20 12:09:36;;;;;;;4.28;1.75;;;26.00;38.60;;;;;;6137951;23;20036;-77
2022/04/20 12:12:05;;;;;;;3.90;1.73;;;26.10;38.70;;;;;;6163637;23;20190;-78
2022/04/20 12:14:32;;;;;;;3.95;2.03;;;25.50;38.10;;;;;;6138325;23;20002;-77
2022/04/20 12:17:02;;;;;;;2.75;1.73;;;25.90;38.10;;;;;;6162653;23;20026;-77
2022/04/20 12:19:35;;;;;;;4.65;1.80;;;26.40;38.60;;;;;;6164018;23;20063;-77
2022/04/20 12:22:12;;;;;;;2.45;1.50;;;27.00;38.10;;;;;;6138402;23;20006;-77
2022/04/20 12:24:41;;;;;;;5.47;1.83;;;26.80;38.30;;;;;;6163865;23;20009;-78
2022/04/20 12:27:16;;;;;;;4.18;1.83;;;27.30;37.80;;;;;;6163608;23;20004;-79
2022/04/20 12:29:45;;;;;;;3.58;1.50;;;27.70;37.90;;;;;;6164408;23;20048;-76
2022/04/20 12:32:11;;;;;;;3.13;1.30;;;28.50;38.00;;;;;;6162837;23;20068;-76
2022/04/20 12:34:37;;;;;;;3.20;1.25;;;29.00;36.20;;;;;;6138278;23;20013;-76
2022/04/20 12:37:15;;;;;;;2.72;1.50;;;29.40;36.70;;;;;;6137059;23;20021;-75
2022/04/20 12:39:45;;;;;;;2.67;1.50;;;29.60;35.80;;;;;;6164728;23;20002;-76
2022/04/20 12:42:17;;;;;;;4.30;1.60;;;29.40;35.70;;;;;;6164300;23;20006;-75
2022/04/20 12:44:54;;;;;;;3.90;1.40;;;30.00;35.40;;;;;;6137879;23;20057;-75
2022/04/20 12:47:20;;;;;;;2.50;1.52;;;30.50;35.10;;;;;;6137208;23;20021;-76
2022/04/20 12:49:53;;;;;;;5.03;1.58;;;31.00;34.70;;;;;;6138193;23;20017;-76
2022/04/20 12:52:22;;;;;;;3.45;1.50;;;31.30;34.20;;;;;;6164042;23;20013;-77
2022/04/20 12:55:10;;;;;;;3.15;1.45;;;31.40;34.20;;;;;;6163303;23;19998;-78
2022/04/20 13:03:10;;;;;;;2.30;1.58;;;31.80;34.30;;;;;;6163098;23;20021;-78
2022/04/20 13:05:38;;;;;;;3.08;1.17;;;31.60;34.80;;;;;;6164207;23;20036;-77
2022/04/20 13:08:05;;;;;;;;;;;32.90;34.70;;;;;;6164095;23;20176;-78
2022/04/20 13:10:34;;;;;;;3.20;1.40;;;32.80;33.30;;;;;;6164540;23;19900;-77
2022/04/20 13:13:00;;;;;;;3.47;1.48;;;31.80;33.30;;;;;;6163326;23;20124;-75
2022/04/20 13:15:31;;;;;;;2.88;1.45;;;31.30;34.10;;;;;;6137230;23;20286;-77
2022/04/20 13:17:57;;;;;;;2.05;1.10;;;31.80;33.80;;;;;;6163085;23;19997;-76
2022/04/20 13:20:25;;;;;;;2.60;1.20;;;33.20;33.40;;;;;;6137708;23;20057;-76
2022/04/20 13:22:52;;;;;;;1.98;1.20;;;32.90;33.50;;;;;;6163514;23;20004;-78
2022/04/20 13:28:03;;;;;;;2.53;1.38;;;33.40;33.20;;;;;;6163791;23;20013;-76
2022/04/20 13:30:38;;;;;;;4.13;1.40;;;33.00;32.90;;;;;;6163673;23;20010;-76
2022/04/20 13:33:12;;;;;;;4.07;1.15;;;32.80;33.20;;;;;;6163354;23;19997;-78
2022/04/20 13:35:39;;;;;;;3.22;1.17;;;34.60;33.50;;;;;;6138056;23;20243;-77
2022/04/20 13:38:07;;;;;;;4.28;1.45;;;35.50;32.40;;;;;;6163058;23;20004;-78
2022/04/20 13:40:36;;;;;;;2.40;1.10;;;35.30;32.20;;;;;;6163856;23;20183;-78
2022/04/20 13:43:03;;;;;;;6.57;1.70;;;35.20;32.00;;;;;;6137090;23;20001;-78
2022/04/20 13:45:28;;;;;;;2.42;1.20;;;35.60;32.30;;;;;;6164368;23;20177;-78
2022/04/20 13:47:54;;;;;;;3.15;1.30;;;34.30;32.70;;;;;;6164482;23;20008;-78
2022/04/20 13:50:20;;;;;;;4.13;1.60;;;34.50;33.10;;;;;;6139480;23;20009;-78
2022/04/20 13:52:46;;;;;;;2.67;1.38;;;35.10;32.40;;;;;;6165779;23;20009;-78
2022/04/20 13:55:13;;;;;;;2.40;1.38;;;35.20;32.70;;;;;;6165137;23;19997;-77
2022/04/20 13:57:39;;;;;;;5.00;1.30;;;35.40;31.80;;;;;;6165626;23;20287;-79
2022/04/20 14:00:08;;;;;;;3.22;1.40;;;35.70;32.20;;;;;;6163859;23;19997;-78
2022/04/20 14:02:43;;;;;;;3.90;1.25;;;36.20;31.90;;;;;;6141213;23;20017;-77
2022/04/20 14:05:10;;;;;;;2.10;1.25;;;36.30;31.50;;;;;;6138642;23;20017;-77
2022/04/20 14:07:37;;;;;;;3.57;1.30;;;36.60;31.90;;;;;;6139720;23;20064;-77
2022/04/20 14:10:07;;;;;;;3.42;1.27;;;36.70;31.70;;;;;;6138578;23;20021;-77
2022/04/20 14:12:33;;;;;;;2.50;1.30;;;35.40;31.60;;;;;;6165619;23;20017;-77
2022/04/20 14:15:00;;;;;;;2.83;1.17;;;36.00;32.60;;;;;;6138773;23;20053;-77
2022/04/20 14:17:26;;;;;;;2.03;1.17;;;35.60;31.70;;;;;;6139026;23;20158;-77
2022/04/20 14:19:51;;;;;;;1.90;1.20;;;35.10;32.40;;;;;;6138694;23;20005;-78
2022/04/20 14:22:17;;;;;;;7.18;1.52;;;35.40;32.60;;;;;;6165342;23;20337;-77
2022/04/20 14:24:45;;;;;;;2.05;1.42;;;35.00;32.50;;;;;;6139643;23;20006;-77
2022/04/20 14:32:40;;;;;;;6.80;1.55;;;35.00;31.90;;;;;;6164730;23;20226;-78
2022/04/20 14:35:12;;;;;;;2.67;1.48;;;33.00;32.30;;;;;;6138869;23;20000;-78
2022/04/20 14:37:38;;;;;;;2.78;1.50;;;33.80;32.80;;;;;;6165548;23;20008;-78
2022/04/20 14:40:05;;;;;;;2.53;1.40;;;35.30;32.40;;;;;;6138531;23;20190;-78
2022/04/20 14:42:30;;;;;;;2.90;1.50;;;36.20;31.80;;;;;;6139430;23;20005;-78
2022/04/20 14:44:56;;;;;;;2.83;1.20;;;34.60;32.00;;;;;;6138809;23;20002;-78
2022/04/20 14:47:22;;;;;;;3.53;1.17;;;35.40;32.20;;;;;;6138354;23;20208;-78
2022/04/20 14:49:48;;;;;;;1.60;1.00;;;36.10;32.20;;;;;;6139409;23;20124;-76
2022/04/20 14:52:16;;;;;;;3.70;1.40;;;36.90;32.30;;;;;;6164178;23;19993;-76
2022/04/20 14:54:44;;;;;;;2.40;1.23;;;36.60;31.30;;;;;;6139144;23;20012;-77
2022/04/20 14:57:10;;;;;;;2.50;1.17;;;36.70;31.40;;;;;;6163958;23;20005;-78
2022/04/20 14:59:36;;;;;;;4.85;1.38;;;36.60;31.20;;;;;;6165176;23;19986;-77
2022/04/20 15:02:07;;;;;;;3.53;1.00;;;37.10;31.30;;;;;;6163425;23;20022;-77
2022/04/20 15:04:34;;;;;;;2.30;1.23;;;36.40;31.90;;;;;;6164955;23;20052;-77
2022/04/20 15:07:01;;;;;;;2.55;1.30;;;37.00;31.90;;;;;;6138424;23;20043;-77
2022/04/20 15:09:27;;;;;;;2.25;1.52;;;36.40;31.50;;;;;;6165076;23;20053;-76
2022/04/20 15:11:53;;;;;;;3.35;1.27;;;35.30;31.80;;;;;;6163884;23;20010;-76
2022/04/20 15:14:20;;;;;;;2.15;1.33;;;34.80;32.60;;;;;;6164880;23;20291;-77
2022/04/20 15:16:46;;;;;;;2.58;1.30;;;35.60;32.30;;;;;;6164644;23;20016;-76
2022/04/20 15:19:16;;;;;;;3.03;1.20;;;35.50;32.00;;;;;;6164029;23;20383;-77
2022/04/20 15:21:43;;;;;;;2.13;1.20;;;36.20;32.50;;;;;;6138753;23;20017;-77
2022/04/20 15:24:09;;;;;;;4.15;1.55;;;36.80;31.60;;;;;;6164137;23;20040;-78
2022/04/20 15:26:36;;;;;;;2.85;1.30;;;36.80;32.10;;;;;;6164449;23;19994;-78
2022/04/20 15:29:02;;;;;;;2.72;1.55;;;37.20;31.70;;;;;;6163730;23;20001;-77
2022/04/20 15:31:28;;;;;;;2.58;1.60;;;37.40;32.00;;;;;;6138241;23;20020;-78
2022/04/20 15:33:55;;;;;;;2.45;1.45;;;37.20;31.70;;;;;;6163796;23;20052;-77
2022/04/20 15:36:21;;;;;;;2.72;1.63;;;36.00;31.90;;;;;;6138902;23;20016;-77
2022/04/20 15:38:49;;;;;;;4.53;1.65;;;35.90;32.40;;;;;;6138626;23;20070;-76
2022/04/20 15:41:15;;;;;;;2.50;1.50;;;35.80;32.40;;;;;;6164097;23;19994;-76
2022/04/20 15:43:42;;;;;;;3.40;1.83;;;34.70;32.60;;;;;;6138328;23;20288;-77
2022/04/20 15:46:08;;;;;;;2.63;1.38;;;34.70;32.50;;;;;;6163404;23;20017;-76
2022/04/20 15:48:34;;;;;;;3.35;1.30;;;35.40;32.60;;;;;;6164425;23;20061;-77
2022/04/20 15:51:03;;;;;;;1.95;1.50;;;34.10;32.70;;;;;;6138177;23;20156;-78
2022/04/20 15:53:30;;;;;;;5.63;1.75;;;34.40;33.40;;;;;;6138697;23;20048;-76
2022/04/20 16:01:25;;;;;;;2.00;1.40;;;35.00;33.30;;;;;;6163941;23;20017;-77
2022/04/20 16:03:50;;;;;;;3.45;1.33;;;35.60;32.90;;;;;;6138031;23;20033;-77
2022/04/20 16:06:17;;;;;;;3.05;1.27;;;34.90;32.70;;;;;;6113407;23;20065;-77
2022/04/20 16:08:44;;;;;;;3.22;1.55;;;35.50;32.60;;;;;;6138505;23;20021;-77
2022/04/20 16:11:11;;;;;;;3.00;1.58;;;35.50;32.20;;;;;;6163534;23;20068;-78
2022/04/20 16:13:37;;;;;;;3.08;1.58;;;34.90;32.70;;;;;;6138695;23;20008;-78
2022/04/20 16:16:04;;;;;;;3.65;1.67;;;34.20;32.60;;;;;;6137416;23;20057;-77
2022/04/20 16:18:33;;;;;;;2.90;1.50;;;34.20;32.50;;;;;;6138338;23;20001;-78
2022/04/20 16:21:06;;;;;;;2.55;1.77;;;34.80;32.60;;;;;;6163772;23;20006;-79
2022/04/20 16:23:34;;;;;;;1.90;1.30;;;34.30;32.70;;;;;;6164138;23;20334;-77
2022/04/20 16:26:00;;;;;;;2.97;1.38;;;34.10;33.20;;;;;;6137947;23;19993;-77
2022/04/20 16:28:29;;;;;;;2.70;1.35;;;34.50;32.80;;;;;;6164410;23;20005;-78
2022/04/20 16:30:55;;;;;;;3.70;1.63;;;34.40;32.60;;;;;;6162463;23;20022;-78
2022/04/20 16:33:22;;;;;;;2.65;1.50;;;34.00;32.90;;;;;;6138155;23;20009;-78
2022/04/20 16:35:48;;;;;;;4.27;1.87;;;33.70;33.60;;;;;;6138075;23;20061;-77
2022/04/20 16:38:15;;;;;;;3.50;1.80;;;33.10;33.30;;;;;;6137212;23;20303;-76
2022/04/20 16:40:42;;;;;;;3.30;1.73;;;32.20;33.80;;;;;;6138210;23;20029;-77
2022/04/20 16:43:09;;;;;;;2.35;1.58;;;31.10;34.40;;;;;;6163592;23;20045;-78
2022/04/20 16:45:35;;;;;;;4.80;1.83;;;30.70;34.50;;;;;;6163257;23;20097;-77
2022/04/20 16:48:01;;;;;;;2.33;1.40;;;31.50;35.10;;;;;;6137578;23;20006;-77
2022/04/20 16:50:26;;;;;;;2.53;1.60;;;31.80;34.50;;;;;;6137820;23;20279;-77
2022/04/20 16:52:54;;;;;;;2.72;1.50;;;32.70;33.60;;;;;;6163900;23;20085;-76
2022/04/20 16:55:19;;;;;;;3.43;1.70;;;32.50;33.50;;;;;;6164142;23;19990;-79
2022/04/20 16:57:45;;;;;;;4.47;1.50;;;31.20;33.80;;;;;;6163867;23;20001;-77
2022/04/20 17:00:18;;;;;;;3.83;1.70;;;31.20;34.70;;;;;;6136402;23;19997;-77
2022/04/20 17:02:43;;;;;;;2.22;1.58;;;31.30;33.60;;;;;;6137992;23;20058;-77
2022/04/20 17:05:10;;;;;;;2.90;1.48;;;31.40;33.80;;;;;;6162705;23;20001;-77
2022/04/20 17:07:36;;;;;;;2.05;1.25;;;30.90;34.20;;;;;;6163996;23;20076;-77
2022/04/20 17:10:04;;;;;;;2.80;1.48;;;30.10;34.50;;;;;;6163131;23;20025;-77
2022/04/20 17:12:30;;;;;;;3.22;1.80;;;28.70;36.00;;;;;;6163749;23;20072;-77
2022/04/20 17:14:56;;;;;;;3.80;2.10;;;26.90;37.00;;;;;;6137538;23;20329;-78
2022/04/20 17:17:22;;;;;;;2.92;1.70;;;25.60;37.40;;;;;;6137582;23;20018;-78
2022/04/20 17:19:47;;;;;;;6.53;2.13;;;24.20;38.80;;;;;;6165492;23;20307;-77
2022/04/20 17:27:42;;;;;;;4.65;2.72;;;21.70;42.20;;;;;;6166284;23;20021;-79
2022/04/20 17:30:08;;;;;;;3.92;2.30;;;20.90;42.50;;;;;;6164348;23;20001;-79
2022/04/20 17:32:34;;;;;;;4.30;2.25;;;20.00;43.50;;;;;;6166101;23;20021;-78
2022/04/20 17:37:45;;;;;;;3.65;2.50;;;18.80;45.30;;;;;;6167078;23;20001;-78
2022/04/20 17:40:11;;;;;;;5.15;3.13;;;18.20;45.60;;;;;;6166127;23;20028;-79
2022/04/20 17:42:38;;;;;;;5.40;2.92;;;17.80;46.00;;;;;;6166222;23;20057;-79
2022/04/20 17:45:05;;;;;;;5.53;2.78;;;17.60;46.50;;;;;;6164937;23;20021;-79
2022/04/20 17:47:32;;;;;;;5.28;3.17;;;17.30;46.70;;;;;;6166263;23;20005;-80
2022/04/20 17:49:58;;;;;;;5.32;2.85;;;17.10;47.20;;;;;;6165706;23;20062;-79
2022/04/20 17:52:30;;;;;;;4.35;2.83;;;17.00;47.60;;;;;;6165789;23;20180;-85
2022/04/20 17:55:10;;;;;;;4.10;2.55;;;16.80;47.80;;;;;;6141922;23;20234;-88
2022/04/20 17:57:36;;;;;;;3.42;2.15;;;16.80;48.20;;;;;;6092803;23;20009;-77
2022/04/20 18:00:04;;;;;;;5.30;2.15;;;16.80;48.20;;;;;;6139102;23;20028;-82
2022/04/20 18:02:32;;;;;;;4.60;2.58;;;16.80;48.40;;;;;;6106148;23;20019;-83
2022/04/20 18:04:58;;;;;;;4.53;2.58;;;16.80;48.50;;;;;;6105073;23;20061;-80
2022/04/20 18:07:24;;;;;;;7.43;2.90;;;16.80;48.40;;;;;;6047632;23;20030;-80
2022/04/20 18:09:49;;;;;;;7.28;2.60;;;16.60;48.40;;;;;;6000607;23;20023;-76
2022/04/20 18:12:17;;;;;;;4.30;2.60;;;16.40;49.10;;;;;;6022696;23;20502;-80
2022/04/20 18:14:43;;;;;;;4.10;2.65;;;16.20;49.20;;;;;;6023644;23;20004;-77
2022/04/20 18:17:08;;;;;;;5.47;2.72;;;16.00;49.50;;;;;;6045752;23;20015;-77
2022/04/20 18:19:35;;;;;;;5.10;2.22;;;15.80;50.00;;;;;;6022565;23;20002;-78
2022/04/20 18:22:01;;;;;;;4.10;2.25;;;15.60;50.20;;;;;;6023483;23;20034;-77
2022/04/20 18:24:27;;;;;;;4.68;2.40;;;15.50;51.00;;;;;;6023519;23;20022;-78
2022/04/20 18:26:53;;;;;;;3.20;2.10;;;15.30;51.30;;;;;;6047317;23;20304;-78
2022/04/20 18:29:19;;;;;;;3.80;2.25;;;15.20;51.70;;;;;;6046668;23;20007;-79
2022/04/20 18:31:46;;;;;;;3.47;2.22;;;15.10;51.70;;;;;;6046337;23;20027;-79
2022/04/20 18:34:12;;;;;;;4.55;2.22;;;15.00;51.80;;;;;;6069354;23;20026;-81
2022/04/20 18:36:37;;;;;;;4.00;2.40;;;14.90;51.90;;;;;;6076595;23;20007;-78
2022/04/20 18:39:06;;;;;;;4.03;2.58;;;14.80;52.30;;;;;;6146483;23;20299;-77
2022/04/20 18:41:33;;;;;;;4.68;2.63;;;14.70;52.60;;;;;;6166407;23;20006;-76
2022/04/20 18:44:00;;;;;;;5.40;2.65;;;14.50;53.20;;;;;;6165556;23;20029;-77
2022/04/20 18:46:26;;;;;;;4.75;2.78;;;14.40;53.40;;;;;;6165782;23;20239;-77
2022/04/20 18:48:51;;;;;;;7.05;3.22;;;14.40;53.70;;;;;;6165682;23;20010;-77
2022/04/20 18:51:17;;;;;;;4.97;2.90;;;14.40;53.80;;;;;;6165108;23;20005;-76
2022/04/20 18:59:31;;;;;;;4.43;2.67;;;14.20;53.90;;;;;;6104710;23;20226;-78
2022/04/20 19:01:57;;;;;;;5.15;2.80;;;14.10;54.50;;;;;;6103425;23;20022;-77
2022/04/20 19:07:07;;;;;;;4.97;2.97;;;13.90;54.50;;;;;;6164549;23;20002;-77
2022/04/20 19:09:33;;;;;;;8.25;3.45;;;13.70;55.00;;;;;;6166048;23;20056;-77
2022/04/20 19:12:00;;;;;;;6.50;3.10;;;13.60;55.30;;;;;;6165764;23;20346;-75
2022/04/20 19:14:26;;;;;;;7.38;3.42;;;13.50;55.40;;;;;;6165813;23;20196;-77